Quinsam — VY6800 — position and weather

sailwx.info

Track history (hours):
 
Tides and Currents Weather Stations Pressure Air Temp Water Temp Dewpoint Dewpoint Depression Visibility Wind Speed Wind Dir Waves Ship Positions

Quinsam

Last reported at 2017-Oct-17 07:43 UTC. Time now 2017-Oct-17 08:05 UTC.
Position N 49°11' W 123°52'.

Length 88 m; draft 1.5 m.

Type: Ship. MMSI: 316001266.

Date/timePositionNaut miles runAvg speedWind from/ knotsBaromVisibWave heightAir tempDewpointWater temp
2017-Oct-17 07:43N 49°11' W 123°52'0 0.0
2017-Oct-17 07:22N 49°11' W 123°52'0 0.0
2017-Oct-17 06:43N 49°11' W 123°52'0 0.0
2017-Oct-17 06:23N 49°11' W 123°52'3 7.5
2017-Oct-17 06:00N 49°10' W 123°56'3 5.2
2017-Oct-17 05:27N 49°11' W 123°52'3 6.6
2017-Oct-17 05:00N 49°10' W 123°56'3 5.6
2017-Oct-17 04:30N 49°11' W 123°52'3 5.9
2017-Oct-17 04:00N 49°10' W 123°56'2 4.5
2017-Oct-17 03:30N 49°11' W 123°53'1 1.3
2017-Oct-17 02:59N 49°11' W 123°52'1 1.8
2017-Oct-17 02:30N 49°11' W 123°53'2 3.6
2017-Oct-17 02:00N 49°10' W 123°55'3 5.2
2017-Oct-17 01:30N 49°11' W 123°52'3 5.9
2017-Oct-17 01:01N 49°10' W 123°56'3 5.8
2017-Oct-17 00:30N 49°11' W 123°52'3 5.8
2017-Oct-17 00:00N 49°10' W 123°56'1 2.6
2017-Oct-16 23:30N 49°10' W 123°54'1 2.2
2017-Oct-16 23:00N 49°11' W 123°52'2 4.8
2017-Oct-16 22:31N 49°10' W 123°56'3 5.7
2017-Oct-16 22:00N 49°11' W 123°52'2 4.4
2017-Oct-16 21:30N 49°10' W 123°55'1 2.0
2017-Oct-16 21:00N 49°11' W 123°53'1 1.5
2017-Oct-16 20:30N 49°11' W 123°52'2 5.1
2017-Oct-16 20:01N 49°10' W 123°56'3 5.2
2017-Oct-16 19:27N 49°11' W 123°52'3 6.5
2017-Oct-16 19:01N 49°10' W 123°56'2 3.4
2017-Oct-16 18:30N 49°10' W 123°53'1 2.3
2017-Oct-16 18:01N 49°11' W 123°52'3 5.7
2017-Oct-16 17:31N 49°10' W 123°56'3 5.7
2017-Oct-16 17:00N 49°11' W 123°52'3 5.3
2017-Oct-16 16:29N 49°10' W 123°56'1 2.5
2017-Oct-16 16:01N 49°10' W 123°54'1 2.9
2017-Oct-16 15:30N 49°11' W 123°52'3 5.8
2017-Oct-16 15:01N 49°10' W 123°56'3 4.8
2017-Oct-16 14:24N 49°11' W 123°52'2 2.8
2017-Oct-16 13:30N 49°10' W 123°55'2 4.9
2017-Oct-16 13:00N 49°11' W 123°52'0 0.0
2017-Oct-16 12:22N 49°11' W 123°52'0 0.0
2017-Oct-16 11:58N 49°11' W 123°52'0 0.0
2017-Oct-16 11:22N 49°11' W 123°52'0 0.0
2017-Oct-16 10:55N 49°11' W 123°52'0 0.0
2017-Oct-16 10:28N 49°11' W 123°52'0 0.0
2017-Oct-16 09:58N 49°11' W 123°52'0 0.0
2017-Oct-16 09:28N 49°11' W 123°52'0 0.0
2017-Oct-16 08:58N 49°11' W 123°52'0 0.0
2017-Oct-16 08:28N 49°11' W 123°52'0 0.0
2017-Oct-16 07:55N 49°11' W 123°52'0 0.0
2017-Oct-16 07:28N 49°11' W 123°52'0 0.0
2017-Oct-16 06:58N 49°11' W 123°52'0 0.0
2017-Oct-16 06:23N 49°11' W 123°52'3 7.7
2017-Oct-16 06:00N 49°10' W 123°56'3 4.9
2017-Oct-16 05:26N 49°11' W 123°52'3 6.8
2017-Oct-16 05:00N 49°10' W 123°56'3 5.5
2017-Oct-16 04:30N 49°11' W 123°52'3 5.4
2017-Oct-16 04:00N 49°10' W 123°56'2 4.6
2017-Oct-16 03:29N 49°11' W 123°52'1 1.1
2017-Oct-16 03:00N 49°11' W 123°52'1 1.4
2017-Oct-16 02:30N 49°11' W 123°53'2 4.1
2017-Oct-16 02:00N 49°10' W 123°56'3 5.3
2017-Oct-16 01:30N 49°11' W 123°52'3 5.8
2017-Oct-16 01:00N 49°10' W 123°56'3 5.7
2017-Oct-16 00:30N 49°11' W 123°52'3 5.9
2017-Oct-16 00:00N 49°10' W 123°56'2 3.2
2017-Oct-15 23:30N 49°10' W 123°53'1 1.7
2017-Oct-15 23:00N 49°11' W 123°52'2 5.1
2017-Oct-15 22:30N 49°10' W 123°56'3 4.9
2017-Oct-15 21:55N 49°11' W 123°52'0 0.0
2017-Oct-15 21:30N 49°11' W 123°52'0 0.0
2017-Oct-15 21:00N 49°11' W 123°52'0 0.2
2017-Oct-15 20:30N 49°11' W 123°52'3 5.6
2017-Oct-15 20:00N 49°10' W 123°56'3 5.5
2017-Oct-15 19:29N 49°11' W 123°52'2 5.1
2017-Oct-15 19:00N 49°10' W 123°55'1 1.7
2017-Oct-15 18:30N 49°10' W 123°54'1 3.0
2017-Oct-15 18:00N 49°11' W 123°52'3 5.3
2017-Oct-15 17:28N 49°10' W 123°56'3 4.3
2017-Oct-15 16:48N 49°11' W 123°52'2 7.8
2017-Oct-15 16:30N 49°10' W 123°55'1 1.5
2017-Oct-15 16:00N 49°10' W 123°54'1 2.1
2017-Oct-15 15:30N 49°11' W 123°52'2 5.0
2017-Oct-15 15:00N 49°10' W 123°56'0 0.0
2017-Oct-15 14:00N 49°10' W 123°56'1 2.2
2017-Oct-15 13:30N 49°10' W 123°54'2 3.6
2017-Oct-15 13:00N 49°11' W 123°52'0 0.0
2017-Oct-15 12:30N 49°11' W 123°52'0 0.0
2017-Oct-15 12:00N 49°11' W 123°52'0 0.0
2017-Oct-15 11:24N 49°11' W 123°52'0 0.0
2017-Oct-15 11:00N 49°11' W 123°52'0 0.0
2017-Oct-15 10:24N 49°11' W 123°52'0 0.0
2017-Oct-15 10:00N 49°11' W 123°52'0 0.0
2017-Oct-15 09:00N 49°11' W 123°52'0 0.0
2017-Oct-15 08:30N 49°11' W 123°52'0 0.0
2017-Oct-15 08:00N 49°11' W 123°52'0 0.0
2017-Oct-15 07:30N 49°11' W 123°52'0 0.0
2017-Oct-15 06:48N 49°11' W 123°52'0 0.0
2017-Oct-15 06:30N 49°11' W 123°52'3 5.8
2017-Oct-15 06:00N 49°10' W 123°56'3 5.3
2017-Oct-15 05:30N 49°11' W 123°52'3 5.4
2017-Oct-15 05:00N 49°10' W 123°56'3 5.5
2017-Oct-15 04:30N 49°11' W 123°52'3 5.5
2017-Oct-15 04:00N 49°10' W 123°56'2 4.2
2017-Oct-15 03:30N 49°11' W 123°53'1 1.5
2017-Oct-15 03:00N 49°11' W 123°52'1 1.3
2017-Oct-15 02:30N 49°11' W 123°53'2 4.2
2017-Oct-15 02:00N 49°10' W 123°56'3 5.5
2017-Oct-15 01:30N 49°11' W 123°52'3 5.7
2017-Oct-15 01:00N 49°10' W 123°56'3 5.6
2017-Oct-15 00:29N 49°11' W 123°52'3 6.0
2017-Oct-15 00:00N 49°10' W 123°56'1 2.4
2017-Oct-14 23:30N 49°10' W 123°54'1 2.3
2017-Oct-14 22:59N 49°11' W 123°52'2 5.1
2017-Oct-14 22:30N 49°10' W 123°56'3 5.7
2017-Oct-14 22:00N 49°11' W 123°52'0 0.0
2017-Oct-14 21:24N 49°11' W 123°52'0 0.0
2017-Oct-14 20:57N 49°11' W 123°52'0 0.2
2017-Oct-14 20:30N 49°11' W 123°52'3 5.7
2017-Oct-14 20:00N 49°10' W 123°56'3 5.8
2017-Oct-14 19:30N 49°11' W 123°52'2 4.8
2017-Oct-14 19:00N 49°10' W 123°55'1 1.7
2017-Oct-14 18:30N 49°10' W 123°54'1 2.8
2017-Oct-14 18:00N 49°11' W 123°52'3 5.5
2017-Oct-14 17:30N 49°10' W 123°56'3 4.1
2017-Oct-14 16:48N 49°11' W 123°52'3 8.6
2017-Oct-14 16:30N 49°10' W 123°55'1 2.2
2017-Oct-14 16:00N 49°10' W 123°54'1 2.7
2017-Oct-14 15:30N 49°11' W 123°52'3 5.7
2017-Oct-14 15:00N 49°10' W 123°56'3 5.4
2017-Oct-14 14:28N 49°11' W 123°52'2 5.1
2017-Oct-14 14:00N 49°10' W 123°55'0 0.2
2017-Oct-14 13:30N 49°10' W 123°55'2 4.4
2017-Oct-14 13:00N 49°11' W 123°52'0 0.0
2017-Oct-14 12:22N 49°11' W 123°52'0 0.0
2017-Oct-14 11:58N 49°11' W 123°52'0 0.0
2017-Oct-14 09:46N 49°11' W 123°52'0 0.0
2017-Oct-14 09:28N 49°11' W 123°52'0 0.0
2017-Oct-14 08:58N 49°11' W 123°52'0 0.0
2017-Oct-14 08:16N 49°11' W 123°52'0 0.0
2017-Oct-14 07:58N 49°11' W 123°52'0 0.0
2017-Oct-14 07:28N 49°11' W 123°52'0 0.0
2017-Oct-14 06:52N 49°11' W 123°52'0 0.1
2017-Oct-14 06:21N 49°11' W 123°52'3 8.2
2017-Oct-14 06:00N 49°10' W 123°56'3 5.5
2017-Oct-14 05:30N 49°11' W 123°52'3 5.4
2017-Oct-14 05:00N 49°10' W 123°56'3 5.6
2017-Oct-14 04:30N 49°11' W 123°52'3 5.6
2017-Oct-14 04:00N 49°10' W 123°56'2 4.5
2017-Oct-14 03:30N 49°11' W 123°53'1 1.3
2017-Oct-14 03:00N 49°11' W 123°52'1 1.2
2017-Oct-14 02:30N 49°11' W 123°53'2 4.1
2017-Oct-14 02:00N 49°10' W 123°55'2 3.5
2017-Oct-14 01:25N 49°11' W 123°52'2 5.6
2017-Oct-14 01:00N 49°10' W 123°56'2 2.6
2017-Oct-14 00:15N 49°11' W 123°53'2 7.8
2017-Oct-14 00:00N 49°10' W 123°56'1 2.8
2017-Oct-13 23:30N 49°10' W 123°54'1 2.5
2017-Oct-13 23:00N 49°11' W 123°52'3 5.3
2017-Oct-13 22:30N 49°10' W 123°56'3 5.5
2017-Oct-13 21:59N 49°11' W 123°52'3 6.1
2017-Oct-13 21:30N 49°10' W 123°56'1 2.9
2017-Oct-13 21:00N 49°10' W 123°54'1 2.1
2017-Oct-13 20:30N 49°11' W 123°52'3 5.0
2017-Oct-13 20:00N 49°10' W 123°56'3 5.3
2017-Oct-13 19:28N 49°11' W 123°52'2 5.2
2017-Oct-13 19:01N 49°10' W 123°55'1 1.2
2017-Oct-13 18:31N 49°10' W 123°54'2 3.5
2017-Oct-13 18:00N 49°11' W 123°52'3 5.8
2017-Oct-13 17:30N 49°10' W 123°56'3 5.9
2017-Oct-13 17:00N 49°11' W 123°52'3 5.7
2017-Oct-13 16:31N 49°10' W 123°56'1 2.7
2017-Oct-13 16:00N 49°10' W 123°54'1 2.0
2017-Oct-13 15:29N 49°11' W 123°52'2 5.2
2017-Oct-13 15:00N 49°10' W 123°56'3 5.8
2017-Oct-13 14:30N 49°11' W 123°52'2 4.5
2017-Oct-13 14:01N 49°10' W 123°55'0 0.2
2017-Oct-13 13:30N 49°10' W 123°55'2 3.6
2017-Oct-13 12:53N 49°11' W 123°52'0 0.0
2017-Oct-13 11:28N 49°11' W 123°52'0 0.0
2017-Oct-13 10:43N 49°11' W 123°52'0 0.0
2017-Oct-13 06:25N 49°11' W 123°52'3 6.9
2017-Oct-13 06:00N 49°10' W 123°56'3 5.4
2017-Oct-13 05:30N 49°11' W 123°52'3 5.5
2017-Oct-13 05:00N 49°10' W 123°56'3 5.7
2017-Oct-13 04:30N 49°11' W 123°52'3 5.7
2017-Oct-13 04:00N 49°10' W 123°56'2 4.7
2017-Oct-13 03:30N 49°11' W 123°52'1 1.1
2017-Oct-13 02:59N 49°11' W 123°52'0 0.9
2017-Oct-13 02:30N 49°11' W 123°52'2 4.7
2017-Oct-13 02:00N 49°10' W 123°56'3 5.3
2017-Oct-13 01:30N 49°11' W 123°52'3 5.6
2017-Oct-13 01:00N 49°10' W 123°56'3 5.3
2017-Oct-13 00:28N 49°11' W 123°52'3 6.4
2017-Oct-13 00:00N 49°10' W 123°56'3 5.5
2017-Oct-12 23:29N 49°11' W 123°52'2 3.8
2017-Oct-12 23:00N 49°10' W 123°54'1 1.8
2017-Oct-12 22:30N 49°10' W 123°56'3 5.3
2017-Oct-12 21:59N 49°11' W 123°52'3 6.1
2017-Oct-12 21:30N 49°10' W 123°56'3 4.5
2017-Oct-12 20:52N 49°11' W 123°52'2 6.1
2017-Oct-12 20:30N 49°10' W 123°55'0 0.2
2017-Oct-12 20:01N 49°10' W 123°55'2 3.5
2017-Oct-12 19:29N 49°11' W 123°52'3 5.3
2017-Oct-12 19:00N 49°10' W 123°56'3 5.2
2017-Oct-12 18:27N 49°11' W 123°52'2 3.6
2017-Oct-12 18:00N 49°10' W 123°54'1 2.3
2017-Oct-12 17:30N 49°10' W 123°56'3 5.4
2017-Oct-12 17:00N 49°11' W 123°52'3 5.8
2017-Oct-12 16:30N 49°10' W 123°56'3 3.7
2017-Oct-12 15:43N 49°11' W 123°52'1 6.1
2017-Oct-12 15:31N 49°11' W 123°54'2 3.2
2017-Oct-12 15:00N 49°10' W 123°56'3 4.2
2017-Oct-12 14:19N 49°11' W 123°52'2 6.9
2017-Oct-12 14:00N 49°10' W 123°55'0 0.1
2017-Oct-12 13:30N 49°10' W 123°55'2 0.6
2017-Oct-12 09:47N 49°11' W 123°52'0 0.0
2017-Oct-12 09:29N 49°11' W 123°52'0 0.0
2017-Oct-12 08:53N 49°11' W 123°52'0 0.0
2017-Oct-12 08:29N 49°11' W 123°52'0 0.0
2017-Oct-12 07:41N 49°11' W 123°52'0 0.0
2017-Oct-12 07:29N 49°11' W 123°52'0 0.0
2017-Oct-12 06:59N 49°11' W 123°52'0 0.0
2017-Oct-12 06:23N 49°11' W 123°52'3 7.7
2017-Oct-12 06:00N 49°10' W 123°56'0 0.0
2017-Oct-12 05:30N 49°10' W 123°56'0 0.0
2017-Oct-12 05:00N 49°10' W 123°56'3 5.5
2017-Oct-12 04:30N 49°11' W 123°52'3 5.6
2017-Oct-12 04:00N 49°10' W 123°56'2 4.3
2017-Oct-12 03:30N 49°11' W 123°53'1 1.2
2017-Oct-12 02:54N 49°11' W 123°52'0 0.6
2017-Oct-12 02:30N 49°11' W 123°52'3 5.3
2017-Oct-12 02:00N 49°10' W 123°56'3 5.8
2017-Oct-12 01:30N 49°11' W 123°52'3 5.8
2017-Oct-12 01:00N 49°10' W 123°56'3 4.4
2017-Oct-12 00:21N 49°11' W 123°52'3 8.4
2017-Oct-12 00:01N 49°10' W 123°56'1 2.9
2017-Oct-11 23:30N 49°10' W 123°54'1 2.1
2017-Oct-11 23:00N 49°11' W 123°52'3 5.1
2017-Oct-11 22:30N 49°10' W 123°56'3 5.7
2017-Oct-11 22:00N 49°11' W 123°52'2 4.9
2017-Oct-11 21:31N 49°10' W 123°55'1 1.1
2017-Oct-11 21:00N 49°10' W 123°54'2 3.5
2017-Oct-11 20:30N 49°11' W 123°52'3 5.8
2017-Oct-11 20:00N 49°10' W 123°56'3 5.2
2017-Oct-11 19:27N 49°11' W 123°52'3 6.5
2017-Oct-11 19:00N 49°10' W 123°56'1 2.7
2017-Oct-11 18:30N 49°10' W 123°54'1 2.9
2017-Oct-11 18:00N 49°11' W 123°52'3 5.7
2017-Oct-11 17:31N 49°10' W 123°56'3 5.7
2017-Oct-11 17:00N 49°11' W 123°52'3 0.2
2017-Oct-11 00:01N 49°10' W 123°56'1 2.6
2017-Oct-10 23:31N 49°10' W 123°54'1 1.7
2017-Oct-10 23:00N 49°11' W 123°53'2 4.4
2017-Oct-10 22:31N 49°10' W 123°56'3 5.7
2017-Oct-10 22:00N 49°11' W 123°52'3 5.8
2017-Oct-10 21:30N 49°10' W 123°56'2 3.4
2017-Oct-10 21:00N 49°10' W 123°53'0 0.9
2017-Oct-10 20:30N 49°11' W 123°53'2 4.4
2017-Oct-10 20:01N 49°10' W 123°56'3 5.7
2017-Oct-10 19:30N 49°11' W 123°52'3 5.7
2017-Oct-10 19:00N 49°10' W 123°56'1 2.7
2017-Oct-10 18:30N 49°10' W 123°54'1 2.8
2017-Oct-10 18:00N 49°11' W 123°52'3 5.6
2017-Oct-10 17:30N 49°10' W 123°56'3 4.4
2017-Oct-10 16:50N 49°11' W 123°52'2 7.5
2017-Oct-10 16:31N 49°10' W 123°55'1 1.8
2017-Oct-10 16:00N 49°10' W 123°54'1 2.8
2017-Oct-10 15:30N 49°11' W 123°52'3 5.7
2017-Oct-10 15:01N 49°10' W 123°56'1 0.8
2017-Oct-10 14:00N 49°10' W 123°55'0 0.6
2017-Oct-10 13:30N 49°10' W 123°55'2 4.7
2017-Oct-10 12:59N 49°11' W 123°52'0 0.0
2017-Oct-10 06:21N 49°11' W 123°52'3 8.5
2017-Oct-10 06:00N 49°10' W 123°56'3 5.7
2017-Oct-10 05:30N 49°11' W 123°52'3 5.8
2017-Oct-10 05:00N 49°10' W 123°56'3 5.4
2017-Oct-10 04:28N 49°11' W 123°52'3 6.2
2017-Oct-10 04:00N 49°10' W 123°56'3 5.8
2017-Oct-10 03:30N 49°11' W 123°52'0 0.1
2017-Oct-10 02:56N 49°11' W 123°52'0 0.6
2017-Oct-10 02:30N 49°11' W 123°52'3 5.3
2017-Oct-10 02:00N 49°10' W 123°56'3 5.7
2017-Oct-10 01:30N 49°11' W 123°52'3 5.9
2017-Oct-10 01:00N 49°10' W 123°56'3 5.8
2017-Oct-10 00:30N 49°11' W 123°52'3 5.8
2017-Oct-10 00:00N 49°10' W 123°56'2 4.5
2017-Oct-09 23:30N 49°11' W 123°53'0 0.5
2017-Oct-09 23:00N 49°11' W 123°53'2 4.0
2017-Oct-09 22:31N 49°10' W 123°56'3 4.8
2017-Oct-09 21:54N 49°11' W 123°52'3 7.3
2017-Oct-09 21:30N 49°10' W 123°56'2 3.9
2017-Oct-09 21:00N 49°11' W 123°53'0 0.3
2017-Oct-09 20:30N 49°11' W 123°53'2 4.3
2017-Oct-09 20:00N 49°10' W 123°56'3 5.6
2017-Oct-09 19:29N 49°11' W 123°52'3 6.1
2017-Oct-09 19:00N 49°10' W 123°56'2 4.0
2017-Oct-09 18:30N 49°10' W 123°53'1 1.2
2017-Oct-09 18:00N 49°11' W 123°52'3 5.2
2017-Oct-09 17:30N 49°10' W 123°56'3 5.1
2017-Oct-09 16:56N 49°11' W 123°52'2 5.5
2017-Oct-09 16:30N 49°10' W 123°55'1 1.7
2017-Oct-09 16:00N 49°10' W 123°54'1 1.7
2017-Oct-09 15:30N 49°11' W 123°53'2 4.6
2017-Oct-09 15:00N 49°10' W 123°56'3 5.6
2017-Oct-09 14:29N 49°11' W 123°52'2 4.7
2017-Oct-09 14:00N 49°10' W 123°55'0 0.6
2017-Oct-09 13:30N 49°10' W 123°55'3 4.4
2017-Oct-09 12:55N 49°11' W 123°52'0 0.0
2017-Oct-09 06:28N 49°11' W 123°52'3 6.3
2017-Oct-09 06:01N 49°10' W 123°56'3 5.0
2017-Oct-09 05:26N 49°11' W 123°52'3 6.4
2017-Oct-09 04:58N 49°10' W 123°56'3 6.3
2017-Oct-09 04:30N 49°11' W 123°52'3 5.7
2017-Oct-09 04:00N 49°10' W 123°56'3 5.2
2017-Oct-09 03:30N 49°11' W 123°52'0 0.6
2017-Oct-09 02:57N 49°11' W 123°52'1 1.1
2017-Oct-09 02:29N 49°11' W 123°52'2 5.1
2017-Oct-09 02:00N 49°10' W 123°56'3 5.6
2017-Oct-09 01:29N 49°11' W 123°52'3 6.0
2017-Oct-09 01:00N 49°10' W 123°56'3 4.9
2017-Oct-09 00:25N 49°11' W 123°52'3 7.1
2017-Oct-09 00:00N 49°10' W 123°56'2 3.6
2017-Oct-08 23:30N 49°11' W 123°53'0 1.0
2017-Oct-08 23:00N 49°11' W 123°53'2 4.4
2017-Oct-08 22:30N 49°10' W 123°56'3 4.8
2017-Oct-08 21:54N 49°11' W 123°52'0 0.0
2017-Oct-08 21:25N 49°11' W 123°52'0 0.0
2017-Oct-08 20:58N 49°11' W 123°52'0 0.1
2017-Oct-08 20:31N 49°11' W 123°52'3 5.7
2017-Oct-08 20:00N 49°10' W 123°56'3 5.7
2017-Oct-08 19:30N 49°11' W 123°52'2 4.5
2017-Oct-08 19:00N 49°10' W 123°55'1 1.3
2017-Oct-08 18:30N 49°10' W 123°54'1 1.7
2017-Oct-08 18:00N 49°11' W 123°53'2 4.4
2017-Oct-08 17:30N 49°10' W 123°56'3 5.5
2017-Oct-08 16:59N 49°11' W 123°52'3 5.5
2017-Oct-08 16:30N 49°10' W 123°55'1 2.6
2017-Oct-08 16:00N 49°10' W 123°54'1 1.0
2017-Oct-08 15:30N 49°11' W 123°53'2 4.1
2017-Oct-08 15:00N 49°10' W 123°56'0 0.0
2017-Oct-08 14:30N 49°10' W 123°56'0 0.0
2017-Oct-08 14:00N 49°10' W 123°56'1 2.4
2017-Oct-08 13:30N 49°10' W 123°54'2 3.1
2017-Oct-08 12:57N 49°11' W 123°52'0 0.0
2017-Oct-08 11:54N 49°11' W 123°52'0 0.0
2017-Oct-08 11:27N 49°11' W 123°52'0 0.0
2017-Oct-08 10:51N 49°11' W 123°52'0 0.0
2017-Oct-08 10:21N 49°11' W 123°52'0 0.0
2017-Oct-08 10:00N 49°11' W 123°52'0 0.0
2017-Oct-08 09:30N 49°11' W 123°52'0 0.0
2017-Oct-08 08:54N 49°11' W 123°52'0 0.0
2017-Oct-08 08:18N 49°11' W 123°52'0 0.0
2017-Oct-08 08:00N 49°11' W 123°52'0 0.0
2017-Oct-08 07:30N 49°11' W 123°52'0 0.0
2017-Oct-08 06:57N 49°11' W 123°52'0 0.0
2017-Oct-08 06:20N 49°11' W 123°52'3 9.0
2017-Oct-08 06:00N 49°10' W 123°56'3 5.6
2017-Oct-08 05:30N 49°11' W 123°52'3 5.6
2017-Oct-08 05:00N 49°10' W 123°56'3 5.7
2017-Oct-08 04:30N 49°11' W 123°52'3 5.8
2017-Oct-08 04:00N 49°10' W 123°56'3 5.4
2017-Oct-08 03:30N 49°11' W 123°52'0 0.3
2017-Oct-08 03:00N 49°11' W 123°52'0 0.6
2017-Oct-08 02:30N 49°11' W 123°52'3 5.0
2017-Oct-08 02:00N 49°10' W 123°56'3 5.7
2017-Oct-08 01:30N 49°11' W 123°52'3 5.8
2017-Oct-08 01:01N 49°10' W 123°56'3 5.4
2017-Oct-08 00:28N 49°11' W 123°52'3 6.1
2017-Oct-08 00:00N 49°10' W 123°56'1 2.2
2017-Oct-07 23:30N 49°10' W 123°54'2 3.0
2017-Oct-07 23:00N 49°11' W 123°52'3 5.3
2017-Oct-07 22:30N 49°10' W 123°56'3 4.8
2017-Oct-07 21:54N 49°11' W 123°52'2 5.3
2017-Oct-07 21:30N 49°10' W 123°55'0 0.4
2017-Oct-07 21:00N 49°10' W 123°54'1 3.0
2017-Oct-07 20:30N 49°11' W 123°52'2 4.9
2017-Oct-07 20:00N 49°10' W 123°56'3 4.6
2017-Oct-07 19:23N 49°11' W 123°52'3 7.7
2017-Oct-07 19:00N 49°10' W 123°56'2 3.2
2017-Oct-07 18:30N 49°10' W 123°53'1 1.2
2017-Oct-07 18:00N 49°11' W 123°53'2 4.4
2017-Oct-07 17:30N 49°10' W 123°56'3 5.3
2017-Oct-07 16:57N 49°11' W 123°52'3 6.4
2017-Oct-07 16:30N 49°10' W 123°56'1 2.8
2017-Oct-07 16:00N 49°10' W 123°54'1 2.8
2017-Oct-07 15:30N 49°11' W 123°52'3 5.6
2017-Oct-07 15:00N 49°10' W 123°56'3 5.8
2017-Oct-07 14:30N 49°11' W 123°52'2 4.8
2017-Oct-07 14:01N 49°10' W 123°55'0 0.6
2017-Oct-07 13:31N 49°10' W 123°55'3 5.1
2017-Oct-07 13:00N 49°11' W 123°52'0 0.0
2017-Oct-07 12:04N 49°11' W 123°52'0 0.0
2017-Oct-07 11:58N 49°11' W 123°52'0 0.0
2017-Oct-07 10:28N 49°11' W 123°52'0 0.0
2017-Oct-07 09:13N 49°11' W 123°52'0 0.0
2017-Oct-07 08:58N 49°11' W 123°52'0 0.0
2017-Oct-07 08:13N 49°11' W 123°52'0 0.0
2017-Oct-07 07:49N 49°11' W 123°52'  
Track history (hours):
 
Tides and Currents Weather Stations Pressure Air Temp Water Temp Dewpoint Dewpoint Depression Visibility Wind Speed Wind Dir Waves Ship Positions

Quinsam

Last reported at 2017-Oct-17 07:43 UTC. Time now 2017-Oct-17 08:05 UTC.
Position N 49°11' W 123°52'.

Length 88 m; draft 1.5 m.

Type: Ship. MMSI: 316001266.

Date/timePositionNaut miles runAvg speedWind from/ knotsBaromVisibWave heightAir tempDewpointWater temp
2017-Oct-17 07:43N 49°11' W 123°52'0 0.0
2017-Oct-17 07:22N 49°11' W 123°52'0 0.0
2017-Oct-17 06:43N 49°11' W 123°52'0 0.0
2017-Oct-17 06:23N 49°11' W 123°52'3 7.5
2017-Oct-17 06:00N 49°10' W 123°56'3 5.2
2017-Oct-17 05:27N 49°11' W 123°52'3 6.6
2017-Oct-17 05:00N 49°10' W 123°56'3 5.6
2017-Oct-17 04:30N 49°11' W 123°52'3 5.9
2017-Oct-17 04:00N 49°10' W 123°56'2 4.5
2017-Oct-17 03:30N 49°11' W 123°53'1 1.3
2017-Oct-17 02:59N 49°11' W 123°52'1 1.8
2017-Oct-17 02:30N 49°11' W 123°53'2 3.6
2017-Oct-17 02:00N 49°10' W 123°55'3 5.2
2017-Oct-17 01:30N 49°11' W 123°52'3 5.9
2017-Oct-17 01:01N 49°10' W 123°56'3 5.8
2017-Oct-17 00:30N 49°11' W 123°52'3 5.8
2017-Oct-17 00:00N 49°10' W 123°56'1 2.6
2017-Oct-16 23:30N 49°10' W 123°54'1 2.2
2017-Oct-16 23:00N 49°11' W 123°52'2 4.8
2017-Oct-16 22:31N 49°10' W 123°56'3 5.7
2017-Oct-16 22:00N 49°11' W 123°52'2 4.4
2017-Oct-16 21:30N 49°10' W 123°55'1 2.0
2017-Oct-16 21:00N 49°11' W 123°53'1 1.5
2017-Oct-16 20:30N 49°11' W 123°52'2 5.1
2017-Oct-16 20:01N 49°10' W 123°56'3 5.2
2017-Oct-16 19:27N 49°11' W 123°52'3 6.5
2017-Oct-16 19:01N 49°10' W 123°56'2 3.4
2017-Oct-16 18:30N 49°10' W 123°53'1 2.3
2017-Oct-16 18:01N 49°11' W 123°52'3 5.7
2017-Oct-16 17:31N 49°10' W 123°56'3 5.7
2017-Oct-16 17:00N 49°11' W 123°52'3 5.3
2017-Oct-16 16:29N 49°10' W 123°56'1 2.5
2017-Oct-16 16:01N 49°10' W 123°54'1 2.9
2017-Oct-16 15:30N 49°11' W 123°52'3 5.8
2017-Oct-16 15:01N 49°10' W 123°56'3 4.8
2017-Oct-16 14:24N 49°11' W 123°52'2 2.8
2017-Oct-16 13:30N 49°10' W 123°55'2 4.9
2017-Oct-16 13:00N 49°11' W 123°52'0 0.0
2017-Oct-16 12:22N 49°11' W 123°52'0 0.0
2017-Oct-16 11:58N 49°11' W 123°52'0 0.0
2017-Oct-16 11:22N 49°11' W 123°52'0 0.0
2017-Oct-16 10:55N 49°11' W 123°52'0 0.0
2017-Oct-16 10:28N 49°11' W 123°52'0 0.0
2017-Oct-16 09:58N 49°11' W 123°52'0 0.0
2017-Oct-16 09:28N 49°11' W 123°52'0 0.0
2017-Oct-16 08:58N 49°11' W 123°52'0 0.0
2017-Oct-16 08:28N 49°11' W 123°52'0 0.0
2017-Oct-16 07:55N 49°11' W 123°52'0 0.0
2017-Oct-16 07:28N 49°11' W 123°52'0 0.0
2017-Oct-16 06:58N 49°11' W 123°52'0 0.0
2017-Oct-16 06:23N 49°11' W 123°52'3 7.7
2017-Oct-16 06:00N 49°10' W 123°56'3 4.9
2017-Oct-16 05:26N 49°11' W 123°52'3 6.8
2017-Oct-16 05:00N 49°10' W 123°56'3 5.5
2017-Oct-16 04:30N 49°11' W 123°52'3 5.4
2017-Oct-16 04:00N 49°10' W 123°56'2 4.6
2017-Oct-16 03:29N 49°11' W 123°52'1 1.1
2017-Oct-16 03:00N 49°11' W 123°52'1 1.4
2017-Oct-16 02:30N 49°11' W 123°53'2 4.1
2017-Oct-16 02:00N 49°10' W 123°56'3 5.3
2017-Oct-16 01:30N 49°11' W 123°52'3 5.8
2017-Oct-16 01:00N 49°10' W 123°56'3 5.7
2017-Oct-16 00:30N 49°11' W 123°52'3 5.9
2017-Oct-16 00:00N 49°10' W 123°56'2 3.2
2017-Oct-15 23:30N 49°10' W 123°53'1 1.7
2017-Oct-15 23:00N 49°11' W 123°52'2 5.1
2017-Oct-15 22:30N 49°10' W 123°56'3 4.9
2017-Oct-15 21:55N 49°11' W 123°52'0 0.0
2017-Oct-15 21:30N 49°11' W 123°52'0 0.0
2017-Oct-15 21:00N 49°11' W 123°52'0 0.2
2017-Oct-15 20:30N 49°11' W 123°52'3 5.6
2017-Oct-15 20:00N 49°10' W 123°56'3 5.5
2017-Oct-15 19:29N 49°11' W 123°52'2 5.1
2017-Oct-15 19:00N 49°10' W 123°55'1 1.7
2017-Oct-15 18:30N 49°10' W 123°54'1 3.0
2017-Oct-15 18:00N 49°11' W 123°52'3 5.3
2017-Oct-15 17:28N 49°10' W 123°56'3 4.3
2017-Oct-15 16:48N 49°11' W 123°52'2 7.8
2017-Oct-15 16:30N 49°10' W 123°55'1 1.5
2017-Oct-15 16:00N 49°10' W 123°54'1 2.1
2017-Oct-15 15:30N 49°11' W 123°52'2 5.0
2017-Oct-15 15:00N 49°10' W 123°56'0 0.0
2017-Oct-15 14:00N 49°10' W 123°56'1 2.2
2017-Oct-15 13:30N 49°10' W 123°54'2 3.6
2017-Oct-15 13:00N 49°11' W 123°52'0 0.0
2017-Oct-15 12:30N 49°11' W 123°52'0 0.0
2017-Oct-15 12:00N 49°11' W 123°52'0 0.0
2017-Oct-15 11:24N 49°11' W 123°52'0 0.0
2017-Oct-15 11:00N 49°11' W 123°52'0 0.0
2017-Oct-15 10:24N 49°11' W 123°52'0 0.0
2017-Oct-15 10:00N 49°11' W 123°52'0 0.0
2017-Oct-15 09:00N 49°11' W 123°52'0 0.0
2017-Oct-15 08:30N 49°11' W 123°52'0 0.0
2017-Oct-15 08:00N 49°11' W 123°52'0 0.0
2017-Oct-15 07:30N 49°11' W 123°52'0 0.0
2017-Oct-15 06:48N 49°11' W 123°52'0 0.0
2017-Oct-15 06:30N 49°11' W 123°52'3 5.8
2017-Oct-15 06:00N 49°10' W 123°56'3 5.3
2017-Oct-15 05:30N 49°11' W 123°52'3 5.4
2017-Oct-15 05:00N 49°10' W 123°56'3 5.5
2017-Oct-15 04:30N 49°11' W 123°52'3 5.5
2017-Oct-15 04:00N 49°10' W 123°56'2 4.2
2017-Oct-15 03:30N 49°11' W 123°53'1 1.5
2017-Oct-15 03:00N 49°11' W 123°52'1 1.3
2017-Oct-15 02:30N 49°11' W 123°53'2 4.2
2017-Oct-15 02:00N 49°10' W 123°56'3 5.5
2017-Oct-15 01:30N 49°11' W 123°52'3 5.7
2017-Oct-15 01:00N 49°10' W 123°56'3 5.6
2017-Oct-15 00:29N 49°11' W 123°52'3 6.0
2017-Oct-15 00:00N 49°10' W 123°56'1 2.4
2017-Oct-14 23:30N 49°10' W 123°54'1 2.3
2017-Oct-14 22:59N 49°11' W 123°52'2 5.1
2017-Oct-14 22:30N 49°10' W 123°56'3 5.7
2017-Oct-14 22:00N 49°11' W 123°52'0 0.0
2017-Oct-14 21:24N 49°11' W 123°52'0 0.0
2017-Oct-14 20:57N 49°11' W 123°52'0 0.2
2017-Oct-14 20:30N 49°11' W 123°52'3 5.7
2017-Oct-14 20:00N 49°10' W 123°56'3 5.8
2017-Oct-14 19:30N 49°11' W 123°52'2 4.8
2017-Oct-14 19:00N 49°10' W 123°55'1 1.7
2017-Oct-14 18:30N 49°10' W 123°54'1 2.8
2017-Oct-14 18:00N 49°11' W 123°52'3 5.5
2017-Oct-14 17:30N 49°10' W 123°56'3 4.1
2017-Oct-14 16:48N 49°11' W 123°52'3 8.6
2017-Oct-14 16:30N 49°10' W 123°55'1 2.2
2017-Oct-14 16:00N 49°10' W 123°54'1 2.7
2017-Oct-14 15:30N 49°11' W 123°52'3 5.7
2017-Oct-14 15:00N 49°10' W 123°56'3 5.4
2017-Oct-14 14:28N 49°11' W 123°52'2 5.1
2017-Oct-14 14:00N 49°10' W 123°55'0 0.2
2017-Oct-14 13:30N 49°10' W 123°55'2 4.4
2017-Oct-14 13:00N 49°11' W 123°52'0 0.0
2017-Oct-14 12:22N 49°11' W 123°52'0 0.0
2017-Oct-14 11:58N 49°11' W 123°52'0 0.0
2017-Oct-14 09:46N 49°11' W 123°52'0 0.0
2017-Oct-14 09:28N 49°11' W 123°52'0 0.0
2017-Oct-14 08:58N 49°11' W 123°52'0 0.0
2017-Oct-14 08:16N 49°11' W 123°52'0 0.0
2017-Oct-14 07:58N 49°11' W 123°52'0 0.0
2017-Oct-14 07:28N 49°11' W 123°52'0 0.0
2017-Oct-14 06:52N 49°11' W 123°52'0 0.1
2017-Oct-14 06:21N 49°11' W 123°52'3 8.2
2017-Oct-14 06:00N 49°10' W 123°56'3 5.5
2017-Oct-14 05:30N 49°11' W 123°52'3 5.4
2017-Oct-14 05:00N 49°10' W 123°56'3 5.6
2017-Oct-14 04:30N 49°11' W 123°52'3 5.6
2017-Oct-14 04:00N 49°10' W 123°56'2 4.5
2017-Oct-14 03:30N 49°11' W 123°53'1 1.3
2017-Oct-14 03:00N 49°11' W 123°52'1 1.2
2017-Oct-14 02:30N 49°11' W 123°53'2 4.1
2017-Oct-14 02:00N 49°10' W 123°55'2 3.5
2017-Oct-14 01:25N 49°11' W 123°52'2 5.6
2017-Oct-14 01:00N 49°10' W 123°56'2 2.6
2017-Oct-14 00:15N 49°11' W 123°53'2 7.8
2017-Oct-14 00:00N 49°10' W 123°56'1 2.8
2017-Oct-13 23:30N 49°10' W 123°54'1 2.5
2017-Oct-13 23:00N 49°11' W 123°52'3 5.3
2017-Oct-13 22:30N 49°10' W 123°56'3 5.5
2017-Oct-13 21:59N 49°11' W 123°52'3 6.1
2017-Oct-13 21:30N 49°10' W 123°56'1 2.9
2017-Oct-13 21:00N 49°10' W 123°54'1 2.1
2017-Oct-13 20:30N 49°11' W 123°52'3 5.0
2017-Oct-13 20:00N 49°10' W 123°56'3 5.3
2017-Oct-13 19:28N 49°11' W 123°52'2 5.2
2017-Oct-13 19:01N 49°10' W 123°55'1 1.2
2017-Oct-13 18:31N 49°10' W 123°54'2 3.5
2017-Oct-13 18:00N 49°11' W 123°52'3 5.8
2017-Oct-13 17:30N 49°10' W 123°56'3 5.9
2017-Oct-13 17:00N 49°11' W 123°52'3 5.7
2017-Oct-13 16:31N 49°10' W 123°56'1 2.7
2017-Oct-13 16:00N 49°10' W 123°54'1 2.0
2017-Oct-13 15:29N 49°11' W 123°52'2 5.2
2017-Oct-13 15:00N 49°10' W 123°56'3 5.8
2017-Oct-13 14:30N 49°11' W 123°52'2 4.5
2017-Oct-13 14:01N 49°10' W 123°55'0 0.2
2017-Oct-13 13:30N 49°10' W 123°55'2 3.6
2017-Oct-13 12:53N 49°11' W 123°52'0 0.0
2017-Oct-13 11:28N 49°11' W 123°52'0 0.0
2017-Oct-13 10:43N 49°11' W 123°52'0 0.0
2017-Oct-13 06:25N 49°11' W 123°52'3 6.9
2017-Oct-13 06:00N 49°10' W 123°56'3 5.4
2017-Oct-13 05:30N 49°11' W 123°52'3 5.5
2017-Oct-13 05:00N 49°10' W 123°56'3 5.7
2017-Oct-13 04:30N 49°11' W 123°52'3 5.7
2017-Oct-13 04:00N 49°10' W 123°56'2 4.7
2017-Oct-13 03:30N 49°11' W 123°52'1 1.1
2017-Oct-13 02:59N 49°11' W 123°52'0 0.9
2017-Oct-13 02:30N 49°11' W 123°52'2 4.7
2017-Oct-13 02:00N 49°10' W 123°56'3 5.3
2017-Oct-13 01:30N 49°11' W 123°52'3 5.6
2017-Oct-13 01:00N 49°10' W 123°56'3 5.3
2017-Oct-13 00:28N 49°11' W 123°52'3 6.4
2017-Oct-13 00:00N 49°10' W 123°56'3 5.5
2017-Oct-12 23:29N 49°11' W 123°52'2 3.8
2017-Oct-12 23:00N 49°10' W 123°54'1 1.8
2017-Oct-12 22:30N 49°10' W 123°56'3 5.3
2017-Oct-12 21:59N 49°11' W 123°52'3 6.1
2017-Oct-12 21:30N 49°10' W 123°56'3 4.5
2017-Oct-12 20:52N 49°11' W 123°52'2 6.1
2017-Oct-12 20:30N 49°10' W 123°55'0 0.2
2017-Oct-12 20:01N 49°10' W 123°55'2 3.5
2017-Oct-12 19:29N 49°11' W 123°52'3 5.3
2017-Oct-12 19:00N 49°10' W 123°56'3 5.2
2017-Oct-12 18:27N 49°11' W 123°52'2 3.6
2017-Oct-12 18:00N 49°10' W 123°54'1 2.3
2017-Oct-12 17:30N 49°10' W 123°56'3 5.4
2017-Oct-12 17:00N 49°11' W 123°52'3 5.8
2017-Oct-12 16:30N 49°10' W 123°56'3 3.7
2017-Oct-12 15:43N 49°11' W 123°52'1 6.1
2017-Oct-12 15:31N 49°11' W 123°54'2 3.2
2017-Oct-12 15:00N 49°10' W 123°56'3 4.2
2017-Oct-12 14:19N 49°11' W 123°52'2 6.9
2017-Oct-12 14:00N 49°10' W 123°55'0 0.1
2017-Oct-12 13:30N 49°10' W 123°55'2 0.6
2017-Oct-12 09:47N 49°11' W 123°52'0 0.0
2017-Oct-12 09:29N 49°11' W 123°52'0 0.0
2017-Oct-12 08:53N 49°11' W 123°52'0 0.0
2017-Oct-12 08:29N 49°11' W 123°52'0 0.0
2017-Oct-12 07:41N 49°11' W 123°52'0 0.0
2017-Oct-12 07:29N 49°11' W 123°52'0 0.0
2017-Oct-12 06:59N 49°11' W 123°52'0 0.0
2017-Oct-12 06:23N 49°11' W 123°52'3 7.7
2017-Oct-12 06:00N 49°10' W 123°56'0 0.0
2017-Oct-12 05:30N 49°10' W 123°56'0 0.0
2017-Oct-12 05:00N 49°10' W 123°56'3 5.5
2017-Oct-12 04:30N 49°11' W 123°52'3 5.6
2017-Oct-12 04:00N 49°10' W 123°56'2 4.3
2017-Oct-12 03:30N 49°11' W 123°53'1 1.2
2017-Oct-12 02:54N 49°11' W 123°52'0 0.6
2017-Oct-12 02:30N 49°11' W 123°52'3 5.3
2017-Oct-12 02:00N 49°10' W 123°56'3 5.8
2017-Oct-12 01:30N 49°11' W 123°52'3 5.8
2017-Oct-12 01:00N 49°10' W 123°56'3 4.4
2017-Oct-12 00:21N 49°11' W 123°52'3 8.4
2017-Oct-12 00:01N 49°10' W 123°56'1 2.9
2017-Oct-11 23:30N 49°10' W 123°54'1 2.1
2017-Oct-11 23:00N 49°11' W 123°52'3 5.1
2017-Oct-11 22:30N 49°10' W 123°56'3 5.7
2017-Oct-11 22:00N 49°11' W 123°52'2 4.9
2017-Oct-11 21:31N 49°10' W 123°55'1 1.1
2017-Oct-11 21:00N 49°10' W 123°54'2 3.5
2017-Oct-11 20:30N 49°11' W 123°52'3 5.8
2017-Oct-11 20:00N 49°10' W 123°56'3 5.2
2017-Oct-11 19:27N 49°11' W 123°52'3 6.5
2017-Oct-11 19:00N 49°10' W 123°56'1 2.7
2017-Oct-11 18:30N 49°10' W 123°54'1 2.9
2017-Oct-11 18:00N 49°11' W 123°52'3 5.7
2017-Oct-11 17:31N 49°10' W 123°56'3 5.7
2017-Oct-11 17:00N 49°11' W 123°52'3 0.2
2017-Oct-11 00:01N 49°10' W 123°56'1 2.6
2017-Oct-10 23:31N 49°10' W 123°54'1 1.7
2017-Oct-10 23:00N 49°11' W 123°53'2 4.4
2017-Oct-10 22:31N 49°10' W 123°56'3 5.7
2017-Oct-10 22:00N 49°11' W 123°52'3 5.8
2017-Oct-10 21:30N 49°10' W 123°56'2 3.4
2017-Oct-10 21:00N 49°10' W 123°53'0 0.9
2017-Oct-10 20:30N 49°11' W 123°53'2 4.4
2017-Oct-10 20:01N 49°10' W 123°56'3 5.7
2017-Oct-10 19:30N 49°11' W 123°52'3 5.7
2017-Oct-10 19:00N 49°10' W 123°56'1 2.7
2017-Oct-10 18:30N 49°10' W 123°54'1 2.8
2017-Oct-10 18:00N 49°11' W 123°52'3 5.6
2017-Oct-10 17:30N 49°10' W 123°56'3 4.4
2017-Oct-10 16:50N 49°11' W 123°52'2 7.5
2017-Oct-10 16:31N 49°10' W 123°55'1 1.8
2017-Oct-10 16:00N 49°10' W 123°54'1 2.8
2017-Oct-10 15:30N 49°11' W 123°52'3 5.7
2017-Oct-10 15:01N 49°10' W 123°56'1 0.8
2017-Oct-10 14:00N 49°10' W 123°55'0 0.6
2017-Oct-10 13:30N 49°10' W 123°55'2 4.7
2017-Oct-10 12:59N 49°11' W 123°52'0 0.0
2017-Oct-10 06:21N 49°11' W 123°52'3 8.5
2017-Oct-10 06:00N 49°10' W 123°56'3 5.7
2017-Oct-10 05:30N 49°11' W 123°52'3 5.8
2017-Oct-10 05:00N 49°10' W 123°56'3 5.4
2017-Oct-10 04:28N 49°11' W 123°52'3 6.2
2017-Oct-10 04:00N 49°10' W 123°56'3 5.8
2017-Oct-10 03:30N 49°11' W 123°52'0 0.1
2017-Oct-10 02:56N 49°11' W 123°52'0 0.6
2017-Oct-10 02:30N 49°11' W 123°52'3 5.3
2017-Oct-10 02:00N 49°10' W 123°56'3 5.7
2017-Oct-10 01:30N 49°11' W 123°52'3 5.9
2017-Oct-10 01:00N 49°10' W 123°56'3 5.8
2017-Oct-10 00:30N 49°11' W 123°52'3 5.8
2017-Oct-10 00:00N 49°10' W 123°56'2 4.5
2017-Oct-09 23:30N 49°11' W 123°53'0 0.5
2017-Oct-09 23:00N 49°11' W 123°53'2 4.0
2017-Oct-09 22:31N 49°10' W 123°56'3 4.8
2017-Oct-09 21:54N 49°11' W 123°52'3 7.3
2017-Oct-09 21:30N 49°10' W 123°56'2 3.9
2017-Oct-09 21:00N 49°11' W 123°53'0 0.3
2017-Oct-09 20:30N 49°11' W 123°53'2 4.3
2017-Oct-09 20:00N 49°10' W 123°56'3 5.6
2017-Oct-09 19:29N 49°11' W 123°52'3 6.1
2017-Oct-09 19:00N 49°10' W 123°56'2 4.0
2017-Oct-09 18:30N 49°10' W 123°53'1 1.2
2017-Oct-09 18:00N 49°11' W 123°52'3 5.2
2017-Oct-09 17:30N 49°10' W 123°56'3 5.1
2017-Oct-09 16:56N 49°11' W 123°52'2 5.5
2017-Oct-09 16:30N 49°10' W 123°55'1 1.7
2017-Oct-09 16:00N 49°10' W 123°54'1 1.7
2017-Oct-09 15:30N 49°11' W 123°53'2 4.6
2017-Oct-09 15:00N 49°10' W 123°56'3 5.6
2017-Oct-09 14:29N 49°11' W 123°52'2 4.7
2017-Oct-09 14:00N 49°10' W 123°55'0 0.6
2017-Oct-09 13:30N 49°10' W 123°55'3 4.4
2017-Oct-09 12:55N 49°11' W 123°52'0 0.0
2017-Oct-09 06:28N 49°11' W 123°52'3 6.3
2017-Oct-09 06:01N 49°10' W 123°56'3 5.0
2017-Oct-09 05:26N 49°11' W 123°52'3 6.4
2017-Oct-09 04:58N 49°10' W 123°56'3 6.3
2017-Oct-09 04:30N 49°11' W 123°52'3 5.7
2017-Oct-09 04:00N 49°10' W 123°56'3 5.2
2017-Oct-09 03:30N 49°11' W 123°52'0 0.6
2017-Oct-09 02:57N 49°11' W 123°52'1 1.1
2017-Oct-09 02:29N 49°11' W 123°52'2 5.1
2017-Oct-09 02:00N 49°10' W 123°56'3 5.6
2017-Oct-09 01:29N 49°11' W 123°52'3 6.0
2017-Oct-09 01:00N 49°10' W 123°56'3 4.9
2017-Oct-09 00:25N 49°11' W 123°52'3 7.1
2017-Oct-09 00:00N 49°10' W 123°56'2 3.6
2017-Oct-08 23:30N 49°11' W 123°53'0 1.0
2017-Oct-08 23:00N 49°11' W 123°53'2 4.4
2017-Oct-08 22:30N 49°10' W 123°56'3 4.8
2017-Oct-08 21:54N 49°11' W 123°52'0 0.0
2017-Oct-08 21:25N 49°11' W 123°52'0 0.0
2017-Oct-08 20:58N 49°11' W 123°52'0 0.1
2017-Oct-08 20:31N 49°11' W 123°52'3 5.7
2017-Oct-08 20:00N 49°10' W 123°56'3 5.7
2017-Oct-08 19:30N 49°11' W 123°52'2 4.5
2017-Oct-08 19:00N 49°10' W 123°55'1 1.3
2017-Oct-08 18:30N 49°10' W 123°54'1 1.7
2017-Oct-08 18:00N 49°11' W 123°53'2 4.4
2017-Oct-08 17:30N 49°10' W 123°56'3 5.5
2017-Oct-08 16:59N 49°11' W 123°52'3 5.5
2017-Oct-08 16:30N 49°10' W 123°55'1 2.6
2017-Oct-08 16:00N 49°10' W 123°54'1 1.0
2017-Oct-08 15:30N 49°11' W 123°53'2 4.1
2017-Oct-08 15:00N 49°10' W 123°56'0 0.0
2017-Oct-08 14:30N 49°10' W 123°56'0 0.0
2017-Oct-08 14:00N 49°10' W 123°56'1 2.4
2017-Oct-08 13:30N 49°10' W 123°54'2 3.1
2017-Oct-08 12:57N 49°11' W 123°52'0 0.0
2017-Oct-08 11:54N 49°11' W 123°52'0 0.0
2017-Oct-08 11:27N 49°11' W 123°52'0 0.0
2017-Oct-08 10:51N 49°11' W 123°52'0 0.0
2017-Oct-08 10:21N 49°11' W 123°52'0 0.0
2017-Oct-08 10:00N 49°11' W 123°52'0 0.0
2017-Oct-08 09:30N 49°11' W 123°52'0 0.0
2017-Oct-08 08:54N 49°11' W 123°52'0 0.0
2017-Oct-08 08:18N 49°11' W 123°52'0 0.0
2017-Oct-08 08:00N 49°11' W 123°52'0 0.0
2017-Oct-08 07:30N 49°11' W 123°52'0 0.0
2017-Oct-08 06:57N 49°11' W 123°52'0 0.0
2017-Oct-08 06:20N 49°11' W 123°52'3 9.0
2017-Oct-08 06:00N 49°10' W 123°56'3 5.6
2017-Oct-08 05:30N 49°11' W 123°52'3 5.6
2017-Oct-08 05:00N 49°10' W 123°56'3 5.7
2017-Oct-08 04:30N 49°11' W 123°52'3 5.8
2017-Oct-08 04:00N 49°10' W 123°56'3 5.4
2017-Oct-08 03:30N 49°11' W 123°52'0 0.3
2017-Oct-08 03:00N 49°11' W 123°52'0 0.6
2017-Oct-08 02:30N 49°11' W 123°52'3 5.0
2017-Oct-08 02:00N 49°10' W 123°56'3 5.7
2017-Oct-08 01:30N 49°11' W 123°52'3 5.8
2017-Oct-08 01:01N 49°10' W 123°56'3 5.4
2017-Oct-08 00:28N 49°11' W 123°52'3 6.1
2017-Oct-08 00:00N 49°10' W 123°56'1 2.2
2017-Oct-07 23:30N 49°10' W 123°54'2 3.0
2017-Oct-07 23:00N 49°11' W 123°52'3 5.3
2017-Oct-07 22:30N 49°10' W 123°56'3 4.8
2017-Oct-07 21:54N 49°11' W 123°52'2 5.3
2017-Oct-07 21:30N 49°10' W 123°55'0 0.4
2017-Oct-07 21:00N 49°10' W 123°54'1 3.0
2017-Oct-07 20:30N 49°11' W 123°52'2 4.9
2017-Oct-07 20:00N 49°10' W 123°56'3 4.6
2017-Oct-07 19:23N 49°11' W 123°52'3 7.7
2017-Oct-07 19:00N 49°10' W 123°56'2 3.2
2017-Oct-07 18:30N 49°10' W 123°53'1 1.2
2017-Oct-07 18:00N 49°11' W 123°53'2 4.4
2017-Oct-07 17:30N 49°10' W 123°56'3 5.3
2017-Oct-07 16:57N 49°11' W 123°52'3 6.4
2017-Oct-07 16:30N 49°10' W 123°56'1 2.8
2017-Oct-07 16:00N 49°10' W 123°54'1 2.8
2017-Oct-07 15:30N 49°11' W 123°52'3 5.6
2017-Oct-07 15:00N 49°10' W 123°56'3 5.8
2017-Oct-07 14:30N 49°11' W 123°52'2 4.8
2017-Oct-07 14:01N 49°10' W 123°55'0 0.6
2017-Oct-07 13:31N 49°10' W 123°55'3 5.1
2017-Oct-07 13:00N 49°11' W 123°52'0 0.0
2017-Oct-07 12:04N 49°11' W 123°52'0 0.0
2017-Oct-07 11:58N 49°11' W 123°52'0 0.0
2017-Oct-07 10:28N 49°11' W 123°52'0 0.0
2017-Oct-07 09:13N 49°11' W 123°52'0 0.0
2017-Oct-07 08:58N 49°11' W 123°52'0 0.0
2017-Oct-07 08:13N 49°11' W 123°52'0 0.0
2017-Oct-07 07:49N 49°11' W 123°52'  

Dump ship's entire track history